Time;durP1;ratioP1;P1;durP2;ratioP2;P2;SDS_P1;SDS_P2;PMS_P1;PMS_P2;Temp;Humidity;BMP_temperature;BMP_pressure;BME280_temperature;BME280_humidity;BME280_pressure;Samples;Min_cycle;Max_cycle;Signal;HPM_P1;HPM_P2
2022/04/04 00:00:01;;;;;;;4.40;1.60;;;;;;;1.32;89.64;100935.19;105537;1273;72969;-72
2022/04/04 00:02:27;;;;;;;5.40;2.20;;;;;;;1.31;89.55;100931.39;105525;1273;61428;-72
2022/04/04 00:04:54;;;;;;;4.30;1.80;;;;;;;1.30;89.49;100929.57;105462;1273;59594;-73
2022/04/04 00:07:23;;;;;;;3.00;2.00;;;;;;;1.29;89.50;100929.31;105371;1273;75126;-72
2022/04/04 00:09:50;;;;;;;3.10;1.60;;;;;;;1.28;89.62;100935.67;105457;1273;72498;-73
2022/04/04 00:12:27;;;;;;;3.00;1.80;;;;;;;1.26;89.52;100931.93;105335;1274;72993;-73
2022/04/04 00:14:57;;;;;;;3.90;1.90;;;;;;;1.24;89.58;100932.27;105438;1273;62419;-73
2022/04/04 00:17:24;;;;;;;5.40;2.20;;;;;;;1.21;89.54;100930.72;105543;1273;61964;-73
2022/04/04 00:19:53;;;;;;;3.70;2.10;;;;;;;1.17;89.74;100926.45;105188;1274;73202;-74
2022/04/04 00:22:20;;;;;;;3.90;2.10;;;;;;;1.15;90.15;100925.71;105586;1273;71375;-73
2022/04/04 00:24:46;;;;;;;4.00;2.00;;;;;;;1.15;90.43;100922.94;105290;1273;72916;-73
2022/04/04 00:27:13;;;;;;;3.80;1.80;;;;;;;1.17;90.56;100921.95;105496;1272;61616;-73
2022/04/04 00:29:40;;;;;;;2.70;1.80;;;;;;;1.18;90.63;100922.57;105424;1272;61842;-72
2022/04/04 00:32:08;;;;;;;7.30;2.40;;;;;;;1.19;90.68;100916.88;105642;1271;74061;-73
2022/04/04 00:34:37;;;;;;;8.40;2.80;;;;;;;1.20;90.74;100908.99;105442;1273;72427;-73
2022/04/04 00:37:04;;;;;;;4.40;2.40;;;;;;;1.20;90.77;100909.82;105432;1273;72913;-73
2022/04/04 00:39:31;;;;;;;3.30;1.50;;;;;;;1.22;90.58;100909.21;105280;1274;62500;-72
2022/04/04 00:42:08;;;;;;;3.70;2.10;;;;;;;1.22;90.67;100905.56;105499;1271;60778;-72
2022/04/04 00:44:38;;;;;;;2.60;1.60;;;;;;;1.22;90.60;100906.25;105476;1271;74683;-72
2022/04/04 00:47:27;;;;;;;3.50;1.70;;;;;;;1.20;90.52;100907.92;105491;1272;69832;-72
2022/04/04 00:50:00;;;;;;;4.70;1.80;;;;;;;1.18;90.60;100902.86;105426;1274;74391;-73
2022/04/04 00:52:27;;;;;;;3.40;2.30;;;;;;;1.16;90.68;100904.39;105552;1273;60434;-72
2022/04/04 00:55:02;;;;;;;3.80;2.10;;;;;;;1.14;90.88;100902.09;105480;1273;60816;-72
2022/04/04 00:57:29;;;;;;;6.50;2.30;;;;;;;1.13;90.93;100895.73;105361;1274;75248;-72
2022/04/04 00:59:56;;;;;;;3.40;2.50;;;;;;;1.12;91.17;100890.07;105450;1271;71368;-70
2022/04/04 01:02:22;;;;;;;4.30;2.80;;;;;;;1.10;91.25;100886.52;105537;1273;72978;-72
2022/04/04 01:04:52;;;;;;;4.60;3.10;;;;;;;1.11;91.46;100884.58;105612;1272;61460;-72
2022/04/04 01:07:18;;;;;;;2.80;1.80;;;;;;;1.10;91.48;100880.06;105506;1272;60558;-73
2022/04/04 01:09:46;;;;;;;3.60;2.00;;;;;;;1.09;91.29;100879.61;105543;1273;74215;-72
2022/04/04 01:12:16;;;;;;;3.40;2.30;;;;;;;1.09;91.46;100873.24;105552;1273;72372;-72
2022/04/04 01:14:46;;;;;;;5.00;2.60;;;;;;;1.08;91.42;100874.16;105621;1273;72711;-73
2022/04/04 01:17:16;;;;;;;4.30;1.90;;;;;;;1.08;91.44;100872.75;105547;1273;61154;-72
2022/04/04 01:19:43;;;;;;;5.30;2.90;;;;;;;1.08;91.47;100869.08;105551;1273;61681;-73
2022/04/04 01:22:19;;;;;;;4.50;2.70;;;;;;;1.08;91.51;100866.81;105472;1274;74413;-72
2022/04/04 01:24:45;;;;;;;4.10;2.30;;;;;;;1.08;91.41;100862.81;108402;1271;72212;-74
2022/04/04 01:27:13;;;;;;;3.60;2.30;;;;;;;1.09;91.39;100857.35;108391;1273;72985;-74
2022/04/04 01:29:40;;;;;;;5.70;2.50;;;;;;;1.08;91.36;100854.45;108425;1272;61575;-74
2022/04/04 01:32:08;;;;;;;4.10;2.50;;;;;;;1.08;91.49;100847.66;108372;1273;61830;-73
2022/04/04 01:34:34;;;;;;;5.40;2.80;;;;;;;1.09;91.40;100848.27;108146;1272;73905;-73
2022/04/04 01:37:02;;;;;;;4.10;1.90;;;;;;;1.12;91.39;100846.89;106573;1273;73253;-76
2022/04/04 01:39:28;;;;;;;4.20;2.20;;;;;;;1.14;91.16;100845.15;108438;1272;73136;-75
2022/04/04 01:41:55;;;;;;;3.50;2.10;;;;;;;1.15;90.98;100830.46;106024;1274;63053;-72
2022/04/04 01:44:22;;;;;;;5.70;2.50;;;;;;;1.15;91.06;100829.91;105594;1273;60413;-73
2022/04/04 01:46:51;;;;;;;3.80;2.30;;;;;;;1.17;91.16;100825.08;105639;1272;75286;-73
2022/04/04 01:49:18;;;;;;;10.30;2.70;;;;;;;1.18;90.89;100817.14;105603;1273;72535;-71
2022/04/04 01:51:45;;;;;;;4.20;2.20;;;;;;;1.20;90.79;100814.55;105376;1274;60420;-72
2022/04/04 01:54:11;;;;;;;9.10;3.10;;;;;;;1.21;90.65;100806.84;105563;1273;61536;-73
2022/04/04 01:56:59;;;;;;;4.00;2.50;;;;;;;1.21;90.57;100801.75;105575;1273;61968;-73
2022/04/04 01:59:34;;;;;;;3.70;2.60;;;;;;;1.23;90.71;100796.61;108462;1273;73234;-74
2022/04/04 02:02:01;;;;;;;7.40;3.10;;;;;;;1.25;90.59;100785.38;108244;1273;71350;-74
2022/04/04 02:04:31;;;;;;;2.80;1.50;;;;;;;1.28;90.67;100781.81;108408;1273;72479;-74
2022/04/04 02:06:57;;;;;;;6.70;3.00;;;;;;;1.31;90.73;100776.69;108368;1273;61598;-74
2022/04/04 02:09:24;;;;;;;7.60;3.10;;;;;;;1.32;90.19;100770.87;108464;1272;58365;-74
2022/04/04 02:11:51;;;;;;;6.50;3.20;;;;;;;1.30;90.19;100768.05;108353;1271;73804;-73
2022/04/04 02:14:17;;;;;;;4.40;2.50;;;;;;;1.28;90.34;100765.45;108461;1271;72368;-73
2022/04/04 02:16:45;;;;;;;3.80;2.40;;;;;;;1.25;90.60;100763.38;108384;1273;74146;-74
2022/04/04 02:19:11;;;;;;;5.90;3.00;;;;;;;1.22;90.74;100761.10;108317;1274;61499;-74
2022/04/04 02:21:38;;;;;;;7.10;2.90;;;;;;;1.22;91.06;100757.65;108280;1273;60586;-74
2022/04/04 02:24:12;;;;;;;11.60;3.40;;;;;;;1.21;91.01;100752.14;105666;1273;74157;-73
2022/04/04 02:26:39;;;;;;;5.40;2.30;;;;;;;1.21;91.20;100752.46;105606;1273;71238;-72
2022/04/04 02:29:06;;;;;;;5.30;2.60;;;;;;;1.20;91.29;100747.48;105554;1273;74119;-72
2022/04/04 02:31:38;;;;;;;3.00;2.10;;;;;;;1.19;91.40;100742.19;105464;1273;62198;-72
2022/04/04 02:34:05;;;;;;;4.90;3.10;;;;;;;1.18;91.43;100740.17;105674;1273;60304;-72
2022/04/04 02:36:31;;;;;;;5.60;2.80;;;;;;;1.16;91.78;100738.05;105477;1273;74253;-72
2022/04/04 02:38:58;;;;;;;5.90;3.20;;;;;;;1.15;91.73;100732.88;105581;1272;70311;-72
2022/04/04 02:41:25;;;;;;;3.90;2.50;;;;;;;1.13;91.65;100727.15;105626;1272;74731;-73
2022/04/04 02:43:54;;;;;;;7.20;3.40;;;;;;;1.12;91.87;100724.60;105761;1273;60523;-73
2022/04/04 02:46:21;;;;;;;5.30;3.00;;;;;;;1.10;92.02;100715.66;105584;1271;60780;-73
2022/04/04 02:49:11;;;;;;;7.00;3.50;;;;;;;1.08;92.01;100714.59;105657;1273;74145;-72
2022/04/04 02:51:59;;;;;;;5.80;3.50;;;;;;;1.07;92.29;100714.52;105224;1273;546579;-73
2022/04/04 02:54:26;;;;;;;6.60;3.60;;;;;;;1.05;92.37;100706.50;105720;1273;73113;-73
2022/04/04 02:56:53;;;;;;;5.60;3.80;;;;;;;1.04;92.37;100704.50;105497;1273;61374;-73
2022/04/04 02:59:20;;;;;;;12.90;4.80;;;;;;;1.01;92.70;100703.43;105709;1271;61454;-73
2022/04/04 03:01:49;;;;;;;9.30;4.80;;;;;;;1.01;92.91;100697.89;105592;1273;74072;-73
2022/04/04 03:04:17;;;;;;;9.40;5.10;;;;;;;1.01;92.84;100695.48;108330;1271;71241;-73
2022/04/04 03:06:45;;;;;;;8.50;4.30;;;;;;;1.01;92.93;100691.48;107248;1272;71986;-73
2022/04/04 03:09:12;;;;;;;6.00;3.60;;;;;;;0.99;93.08;100687.73;105324;1274;61230;-73
2022/04/04 03:11:42;;;;;;;12.40;5.00;;;;;;;1.00;93.08;100683.67;105477;1274;61713;-73
2022/04/04 03:14:09;;;;;;;12.70;5.80;;;;;;;1.01;93.19;100679.92;105692;1272;73231;-73
2022/04/04 03:16:36;;;;;;;10.30;4.00;;;;;;;1.03;93.07;100674.25;105594;1274;72427;-72
2022/04/04 03:19:03;;;;;;;12.10;4.50;;;;;;;1.01;92.89;100674.34;105545;1274;73520;-72
2022/04/04 03:21:30;;;;;;;12.90;4.90;;;;;;;1.00;92.87;100669.42;105715;1272;62483;-73
2022/04/04 03:24:00;;;;;;;8.70;4.70;;;;;;;0.97;93.01;100667.84;105570;1274;61467;-73
2022/04/04 03:26:31;;;;;;;14.10;7.00;;;;;;;0.95;93.09;100662.80;105466;1274;74076;-73
2022/04/04 03:28:58;;;;;;;16.60;6.50;;;;;;;0.94;93.34;100659.73;105522;1273;71391;-74
2022/04/04 03:31:27;;;;;;;9.10;4.80;;;;;;;0.94;93.23;100649.62;105594;1271;72894;-74
2022/04/04 03:33:55;;;;;;;13.80;7.90;;;;;;;0.94;93.14;100645.80;105711;1273;61609;-73
2022/04/04 03:36:24;;;;;;;8.40;5.20;;;;;;;0.95;93.00;100638.08;105577;1273;60562;-74
2022/04/04 03:38:51;;;;;;;13.60;7.00;;;;;;;0.95;93.08;100632.67;105517;1273;74467;-74
2022/04/04 03:41:17;;;;;;;9.30;5.80;;;;;;;0.97;93.00;100627.83;105547;1273;70537;-73
2022/04/04 03:43:44;;;;;;;13.20;6.80;;;;;;;0.97;93.04;100627.12;105579;1273;71719;-73
2022/04/04 03:46:13;;;;;;;11.50;5.50;;;;;;;0.97;92.86;100621.55;105438;1273;60902;-73
2022/04/04 03:48:40;;;;;;;18.40;8.80;;;;;;;0.96;93.07;100622.66;105455;1273;60356;-74
2022/04/04 03:51:09;;;;;;;18.20;8.40;;;;;;;0.95;93.09;100620.46;105382;1273;74585;-73
2022/04/04 03:53:36;;;;;;;15.60;8.50;;;;;;;0.97;93.19;100617.59;105599;1273;72529;-73
2022/04/04 03:56:03;;;;;;;18.80;9.60;;;;;;;0.98;93.17;100623.07;106736;1273;74058;-74
2022/04/04 03:58:31;;;;;;;17.20;9.00;;;;;;;1.00;92.96;100618.34;105451;1273;61455;-73
2022/04/04 04:00:58;;;;;;;13.70;6.90;;;;;;;1.03;92.56;100612.41;105571;1273;60438;-72
2022/04/04 04:03:25;;;;;;;22.00;11.70;;;;;;;1.05;92.41;100600.26;105430;1273;60460;-73
2022/04/04 04:06:11;;;;;;;18.10;10.70;;;;;;;1.08;92.30;100600.04;105510;1273;72569;-73
2022/04/04 04:08:39;;;;;;;22.90;8.20;;;;;;;1.10;92.02;100599.55;105429;1273;73073;-74
2022/04/04 04:11:06;;;;;;;19.10;9.20;;;;;;;1.10;91.91;100592.52;105560;1273;61294;-73
2022/04/04 04:13:33;;;;;;;17.50;8.40;;;;;;;1.11;91.63;100592.45;105594;1273;60609;-73
2022/04/04 04:16:02;;;;;;;20.60;11.20;;;;;;;1.14;91.49;100583.02;105448;1274;74089;-72
2022/04/04 04:18:33;;;;;;;16.30;9.50;;;;;;;1.16;91.29;100581.64;106748;1272;71744;-73
2022/04/04 04:21:00;;;;;;;26.00;11.60;;;;;;;1.18;91.07;100581.98;108424;1273;74191;-73
2022/04/04 04:23:27;;;;;;;18.10;9.50;;;;;;;1.19;90.95;100573.02;108479;1272;62803;-73
2022/04/04 04:25:53;;;;;;;19.70;9.90;;;;;;;1.19;90.59;100559.30;108317;1274;60349;-75
2022/04/04 04:28:20;;;;;;;15.50;7.30;;;;;;;1.17;90.55;100560.67;108469;1273;75128;-74
2022/04/04 04:30:47;;;;;;;26.50;6.80;;;;;;;1.16;90.66;100557.39;108464;1273;70415;-74
2022/04/04 04:33:14;;;;;;;20.00;8.60;;;;;;;1.16;90.75;100554.83;108082;1271;73944;-74
2022/04/04 04:35:40;;;;;;;15.20;7.90;;;;;;;1.16;90.58;100547.33;105578;1274;61407;-74
2022/04/04 04:38:07;;;;;;;17.10;8.90;;;;;;;1.15;90.35;100549.11;105711;1273;60577;-73
2022/04/04 04:40:35;;;;;;;18.90;9.60;;;;;;;1.15;90.13;100541.50;106031;1273;75346;-74
2022/04/04 04:43:04;;;;;;;14.60;9.30;;;;;;;1.15;90.36;100536.79;105568;1273;71523;-74
2022/04/04 04:45:31;;;;;;;15.00;8.40;;;;;;;1.14;90.21;100528.64;105523;1274;74284;-73
2022/04/04 04:47:57;;;;;;;13.50;8.50;;;;;;;1.14;90.31;100522.20;105688;1273;62966;-73
2022/04/04 04:50:25;;;;;;;14.90;9.40;;;;;;;1.15;90.33;100516.23;105253;1274;60601;-73
2022/04/04 04:52:54;;;;;;;14.50;8.20;;;;;;;1.15;90.30;100509.77;108459;1272;73283;-73
2022/04/04 04:55:22;;;;;;;18.00;9.80;;;;;;;1.16;90.37;100507.75;108277;1274;71420;-73
2022/04/04 04:57:53;;;;;;;16.60;9.80;;;;;;;1.18;90.06;100503.92;108301;1273;73273;-74
2022/04/04 05:00:23;;;;;;;15.10;8.50;;;;;;;1.21;90.14;100502.84;107758;1273;61452;-71
2022/04/04 05:03:24;;;;;;;13.80;9.10;;;;;;;1.26;89.63;100488.02;108435;1273;60583;-73
2022/04/04 05:05:46;;;;;;;15.10;8.80;;;;;;;1.32;89.48;100482.55;108317;1271;75398;-75
2022/04/04 05:08:16;;;;;;;14.70;7.90;;;;;;;1.35;89.10;100478.95;108419;1273;71357;-72
2022/04/04 05:10:43;;;;;;;13.00;8.00;;;;;;;1.40;88.86;100480.45;105712;1273;72866;-71
2022/04/04 05:13:09;;;;;;;18.70;10.00;;;;;;;1.47;88.29;100478.07;105625;1273;60458;-71
2022/04/04 05:15:36;;;;;;;17.30;8.40;;;;;;;1.52;87.65;100473.26;106085;1273;60518;-71
2022/04/04 05:18:03;;;;;;;15.50;8.60;;;;;;;1.57;87.27;100470.46;105681;1273;73047;-72
2022/04/04 05:20:30;;;;;;;16.30;8.20;;;;;;;1.61;86.86;100461.35;105426;1274;71417;-71
2022/04/04 05:22:59;;;;;;;12.80;7.70;;;;;;;1.66;86.43;100462.06;105614;1271;72946;-70
2022/04/04 05:25:26;;;;;;;11.90;7.60;;;;;;;1.70;85.79;100455.29;105704;1273;61415;-72
2022/04/04 05:27:55;;;;;;;11.60;6.70;;;;;;;1.72;85.76;100447.67;105589;1273;61583;-70
2022/04/04 05:30:23;;;;;;;12.00;8.60;;;;;;;1.74;85.44;100444.17;105571;1273;75403;-70
2022/04/04 05:32:49;;;;;;;8.40;6.40;;;;;;;1.75;84.87;100447.73;105620;1273;71453;-70
2022/04/04 05:35:19;;;;;;;21.90;8.30;;;;;;;1.79;84.46;100443.42;107428;1273;72947;-72
2022/04/04 05:37:46;;;;;;;14.00;8.10;;;;;;;1.83;84.58;100441.86;108412;1272;61424;-71
2022/04/04 05:40:14;;;;;;;14.20;7.80;;;;;;;1.86;84.11;100427.83;108465;1273;60834;-71
2022/04/04 05:42:41;;;;;;;12.00;6.70;;;;;;;1.91;84.07;100431.10;108249;1274;75417;-71
2022/04/04 05:45:09;;;;;;;17.60;8.20;;;;;;;1.95;83.99;100426.92;108453;1273;71328;-71
2022/04/04 05:47:36;;;;;;;12.20;4.90;;;;;;;1.99;83.57;100423.77;108421;1273;72695;-74
2022/04/04 05:50:03;;;;;;;10.60;6.00;;;;;;;2.03;83.01;100420.49;108354;1273;62171;-71
2022/04/04 05:52:34;;;;;;;11.80;6.30;;;;;;;2.08;82.21;100410.34;108426;1273;59639;-71
2022/04/04 05:55:03;;;;;;;12.10;6.70;;;;;;;2.14;81.69;100408.29;108335;1274;74094;-71
2022/04/04 05:57:35;;;;;;;10.70;5.90;;;;;;;2.20;81.08;100410.39;108472;1273;70129;-71
2022/04/04 06:00:11;;;;;;;13.70;6.30;;;;;;;2.25;80.82;100401.38;105723;1273;72887;-70
2022/04/04 06:02:38;;;;;;;13.60;7.00;;;;;;;2.31;79.98;100394.32;108398;1271;60304;-71
2022/04/04 06:05:06;;;;;;;14.40;7.50;;;;;;;2.35;79.61;100400.38;108486;1272;60445;-72
2022/04/04 06:07:34;;;;;;;14.20;7.40;;;;;;;2.39;79.29;100390.95;108400;1272;74133;-71
2022/04/04 06:10:00;;;;;;;18.70;8.90;;;;;;;2.45;79.19;100390.12;108459;1273;71304;-71
2022/04/04 06:12:27;;;;;;;13.90;6.70;;;;;;;2.51;78.50;100379.91;108376;1271;74898;-71
2022/04/04 06:14:53;;;;;;;14.60;6.60;;;;;;;2.57;78.57;100368.54;106111;1271;61107;-70
2022/04/04 06:17:20;;;;;;;15.00;7.80;;;;;;;2.63;77.92;100364.21;105496;1274;59413;-70
2022/04/04 06:19:47;;;;;;;15.50;6.80;;;;;;;2.69;77.25;100364.77;105587;1274;75575;-70
2022/04/04 06:22:13;;;;;;;9.20;5.80;;;;;;;2.73;76.55;100364.52;105469;1271;72020;-69
2022/04/04 06:24:40;;;;;;;14.70;6.50;;;;;;;2.76;75.57;100366.88;105348;1274;72887;-70
2022/04/04 06:27:09;;;;;;;12.60;7.60;;;;;;;2.79;75.17;100364.55;105442;1272;61199;-70
2022/04/04 06:29:35;;;;;;;12.00;7.30;;;;;;;2.81;74.69;100358.10;105400;1274;61504;-71
2022/04/04 06:32:03;;;;;;;7.70;5.10;;;;;;;2.84;74.67;100348.54;105275;1273;75158;-72
2022/04/04 06:34:30;;;;;;;10.60;6.70;;;;;;;2.86;74.45;100345.40;105329;1274;71651;-72
2022/04/04 06:36:57;;;;;;;10.60;6.60;;;;;;;2.90;74.37;100338.99;105505;1274;74376;-71
2022/04/04 06:39:24;;;;;;;12.10;6.20;;;;;;;2.93;74.11;100340.27;105352;1274;60529;-71
2022/04/04 06:41:56;;;;;;;6.90;4.50;;;;;;;2.98;73.89;100331.48;106932;1271;61676;-70
2022/04/04 06:44:23;;;;;;;8.30;4.80;;;;;;;3.02;73.03;100328.64;108432;1271;75134;-71
2022/04/04 06:46:51;;;;;;;8.90;5.60;;;;;;;3.07;72.90;100325.98;108460;1271;71394;-70
2022/04/04 06:49:17;;;;;;;11.20;5.50;;;;;;;3.12;72.79;100322.34;108442;1272;72871;-71
2022/04/04 06:51:44;;;;;;;13.10;6.60;;;;;;;3.19;72.70;100315.98;108436;1271;60269;-70
2022/04/04 06:54:11;;;;;;;14.30;7.40;;;;;;;3.26;72.46;100306.48;107962;1271;58514;-69
2022/04/04 06:56:37;;;;;;;14.20;7.90;;;;;;;3.34;71.87;100308.23;105238;1274;75365;-69
2022/04/04 06:59:04;;;;;;;10.80;6.10;;;;;;;3.38;71.51;100300.15;105421;1271;60494;-68
2022/04/04 07:01:31;;;;;;;15.30;7.40;;;;;;;3.45;71.33;100293.00;105380;1271;60542;-68
2022/04/04 07:03:58;;;;;;;12.80;5.90;;;;;;;3.49;70.49;100286.38;105237;1272;61814;-68
2022/04/04 07:06:26;;;;;;;9.00;6.10;;;;;;;3.54;70.52;100280.86;108424;1271;60580;-69
2022/04/04 07:08:52;;;;;;;10.60;6.40;;;;;;;3.57;70.12;100282.38;108401;1271;75401;-72
2022/04/04 07:11:19;;;;;;;12.10;5.30;;;;;;;3.60;70.36;100272.26;108480;1271;71360;-74
2022/04/04 07:13:49;;;;;;;9.80;6.50;;;;;;;3.62;69.80;100270.10;108512;1271;74314;-71
2022/04/04 07:16:16;;;;;;;15.10;5.40;;;;;;;3.64;68.86;100271.34;108450;1272;61436;-71
2022/04/04 07:18:43;;;;;;;10.70;5.80;;;;;;;3.69;69.04;100265.30;108469;1272;61536;-72
2022/04/04 07:21:10;;;;;;;8.30;6.00;;;;;;;3.76;68.72;100263.34;108375;1272;75391;-71
2022/04/04 07:23:37;;;;;;;7.80;4.70;;;;;;;3.81;68.03;100268.63;108386;1271;71479;-70
2022/04/04 07:26:07;;;;;;;9.80;6.10;;;;;;;3.87;67.39;100261.39;108473;1271;74134;-70
2022/04/04 07:28:34;;;;;;;8.50;6.20;;;;;;;3.90;67.24;100252.56;108406;1271;60020;-70
2022/04/04 07:31:01;;;;;;;9.10;5.90;;;;;;;3.94;67.64;100250.92;105773;1274;61286;-69
2022/04/04 07:33:28;;;;;;;7.10;4.10;;;;;;;3.98;67.50;100255.13;105399;1271;74010;-69
2022/04/04 07:35:55;;;;;;;9.50;6.10;;;;;;;4.00;67.05;100243.92;105379;1274;69058;-69
2022/04/04 07:38:25;;;;;;;9.40;5.80;;;;;;;4.00;67.04;100246.70;105440;1271;74011;-72
2022/04/04 07:40:55;;;;;;;14.90;4.90;;;;;;;4.02;66.56;100232.14;108508;1272;59303;-72
2022/04/04 07:43:22;;;;;;;9.30;5.20;;;;;;;4.05;66.63;100227.90;108362;1274;60551;-73
2022/04/04 07:45:49;;;;;;;7.00;4.00;;;;;;;4.07;66.08;100228.00;108486;1271;74108;-73
2022/04/04 07:48:16;;;;;;;8.90;5.20;;;;;;;4.10;66.14;100216.02;108467;1273;71706;-71
2022/04/04 07:50:44;;;;;;;7.60;4.70;;;;;;;4.15;65.51;100205.45;107451;1272;74144;-69
2022/04/04 07:53:11;;;;;;;6.10;4.10;;;;;;;4.17;64.78;100203.34;105325;1274;60508;-69
2022/04/04 07:55:38;;;;;;;10.70;4.20;;;;;;;4.19;64.85;100188.80;105355;1273;60426;-68
2022/04/04 07:58:05;;;;;;;8.10;4.20;;;;;;;4.22;64.87;100195.60;105296;1274;74056;-70
2022/04/04 08:00:32;;;;;;;4.50;3.00;;;;;;;4.26;64.59;100196.68;105119;1274;71372;-69
2022/04/04 08:02:59;;;;;;;7.70;5.50;;;;;;;4.29;64.50;100185.73;108273;1274;74215;-71
2022/04/04 08:05:26;;;;;;;7.80;4.80;;;;;;;4.29;63.67;100192.84;108472;1272;61030;-70
2022/04/04 08:07:53;;;;;;;5.10;3.50;;;;;;;4.32;62.86;100184.19;108489;1271;60693;-70
2022/04/04 08:10:25;;;;;;;9.00;4.10;;;;;;;4.38;62.54;100184.36;108506;1271;75505;-70
2022/04/04 08:12:52;;;;;;;5.20;4.00;;;;;;;4.45;62.71;100166.27;108505;1273;71354;-69
2022/04/04 08:15:19;;;;;;;5.30;3.30;;;;;;;4.54;62.48;100166.36;108445;1271;72763;-69
2022/04/04 08:17:45;;;;;;;5.60;3.50;;;;;;;4.62;62.11;100156.29;108485;1271;59117;-70
2022/04/04 08:20:13;;;;;;;11.70;4.30;;;;;;;4.66;61.30;100158.67;108372;1273;61806;-69
2022/04/04 08:22:44;;;;;;;6.50;4.30;;;;;;;4.71;60.58;100154.88;108467;1271;74904;-68
2022/04/04 08:25:12;;;;;;;8.90;4.40;;;;;;;4.73;59.66;100163.77;108507;1274;71698;-69
2022/04/04 08:27:43;;;;;;;4.60;2.80;;;;;;;4.81;60.32;100144.12;106989;1273;72962;-69
2022/04/04 08:30:13;;;;;;;4.30;2.90;;;;;;;4.85;59.21;100146.10;106959;1273;59818;-69
2022/04/04 08:32:41;;;;;;;6.00;3.30;;;;;;;4.91;58.89;100142.08;105542;1274;62201;-72
2022/04/04 08:35:10;;;;;;;6.30;3.10;;;;;;;4.87;58.07;100142.91;108383;1272;74435;-71
2022/04/04 08:37:38;;;;;;;4.60;3.40;;;;;;;4.90;58.47;100137.60;108372;1274;70660;-71
2022/04/04 08:40:07;;;;;;;4.10;3.00;;;;;;;4.88;57.87;100129.20;108469;1274;73962;-71
2022/04/04 08:42:35;;;;;;;5.00;3.30;;;;;;;4.87;57.94;100122.79;108496;1271;60821;-71
2022/04/04 08:45:04;;;;;;;6.70;3.10;;;;;;;4.91;58.08;100124.70;108513;1271;60009;-71
2022/04/04 08:47:33;;;;;;;5.80;3.10;;;;;;;5.00;58.40;100096.96;108458;1271;74303;-72
2022/04/04 08:50:01;;;;;;;4.80;2.90;;;;;;;5.11;58.35;100090.17;108272;1271;71786;-72
2022/04/04 08:52:28;;;;;;;5.00;3.20;;;;;;;5.16;57.56;100106.28;108393;1274;73027;-73
2022/04/04 08:54:55;;;;;;;8.90;3.20;;;;;;;5.13;57.06;100098.30;108511;1271;59677;-72
2022/04/04 08:57:21;;;;;;;10.60;4.20;;;;;;;5.12;57.35;100126.16;108426;1273;60355;-72
2022/04/04 08:59:48;;;;;;;6.30;3.20;;;;;;;5.07;57.52;100092.91;108513;1271;74212;-72
2022/04/04 09:02:15;;;;;;;5.40;3.60;;;;;;;5.09;57.98;100077.52;108550;1272;72659;-72
2022/04/04 09:04:42;;;;;;;6.20;3.40;;;;;;;5.10;57.90;100066.25;108502;1271;72951;-73
2022/04/04 09:07:11;;;;;;;6.20;3.20;;;;;;;5.11;58.11;100063.09;108382;1274;58414;-73
2022/04/04 09:09:49;;;;;;;4.90;2.70;;;;;;;5.08;58.12;100073.40;108330;1271;61401;-70
2022/04/04 09:12:22;;;;;;;6.10;3.90;;;;;;;5.07;58.71;100054.23;105913;1271;75396;-72
2022/04/04 09:14:56;;;;;;;5.20;3.00;;;;;;;5.04;59.76;100055.79;108509;1271;72608;-69
2022/04/04 09:17:27;;;;;;;17.30;3.70;;;;;;;4.99;60.95;100047.02;108344;1271;72912;-69
2022/04/04 09:19:54;;;;;;;6.60;3.60;;;;;;;4.92;62.89;100051.52;108354;1274;59997;-69
2022/04/04 09:22:23;;;;;;;5.00;3.40;;;;;;;4.86;64.23;100035.86;108494;1271;60500;-70
2022/04/04 09:24:56;;;;;;;6.00;3.90;;;;;;;4.75;64.64;100024.70;108461;1271;74544;-71
2022/04/04 09:27:25;;;;;;;6.40;4.10;;;;;;;4.65;65.41;100023.03;107427;1274;72461;-69
2022/04/04 09:29:55;;;;;;;7.00;4.00;;;;;;;4.57;65.78;100028.45;105406;1274;76112;-69
2022/04/04 09:32:44;;;;;;;6.20;3.80;;;;;;;4.58;66.63;100007.34;105315;1274;61830;-69
2022/04/04 09:35:15;;;;;;;5.20;4.30;;;;;;;4.56;67.30;100006.95;105544;1272;60544;-70
2022/04/04 09:37:48;;;;;;;6.50;3.90;;;;;;;4.45;67.79;100016.04;105408;1273;74014;-70
2022/04/04 09:40:24;;;;;;;10.80;6.20;;;;;;;4.42;69.07;99986.29;105352;1274;72438;-71
2022/04/04 09:42:54;;;;;;;8.00;4.70;;;;;;;4.36;68.93;99983.00;106430;1271;72960;-71
2022/04/04 09:45:25;;;;;;;7.40;4.70;;;;;;;4.31;70.54;99983.84;108468;1271;61560;-71
2022/04/04 09:48:11;;;;;;;13.60;9.20;;;;;;;4.24;71.75;99965.97;108499;1271;60481;-71
2022/04/04 09:50:48;;;;;;;8.80;5.70;;;;;;;4.20;72.33;99963.64;108444;1272;74501;-71
2022/04/04 09:53:19;;;;;;;10.70;6.00;;;;;;;4.20;72.75;99942.44;108463;1273;70287;-71
2022/04/04 09:55:52;;;;;;;10.40;6.90;;;;;;;4.23;72.88;99947.05;108423;1273;74170;-71
2022/04/04 09:58:21;;;;;;;10.40;5.70;;;;;;;4.31;73.05;99925.98;108455;1274;61174;-72
2022/04/04 10:00:49;;;;;;;10.80;6.70;;;;;;;4.33;72.85;99925.69;105610;1274;60539;-70
2022/04/04 10:03:27;;;;;;;14.90;6.20;;;;;;;4.34;73.39;99917.90;105627;1273;73598;-70
2022/04/04 10:05:56;;;;;;;14.80;8.20;;;;;;;4.36;74.31;99908.85;105456;1274;72595;-70
2022/04/04 10:08:30;;;;;;;9.00;5.20;;;;;;;4.35;74.59;99895.61;105556;1274;71946;-70
2022/04/04 10:11:20;;;;;;;7.50;4.90;;;;;;;4.35;74.24;99877.27;105513;1273;62357;-70
2022/04/04 10:13:48;;;;;;;10.30;6.50;;;;;;;4.40;74.77;99870.20;105407;1274;60532;-70
2022/04/04 10:16:16;;;;;;;9.40;5.90;;;;;;;4.44;73.29;99868.92;108451;1273;74292;-71
2022/04/04 10:18:53;;;;;;;10.50;6.70;;;;;;;4.52;72.83;99861.67;108398;1274;72399;-71
2022/04/04 10:21:21;;;;;;;12.50;6.20;;;;;;;4.62;72.74;99850.30;108341;1274;74281;-72
2022/04/04 10:23:50;;;;;;;8.50;5.80;;;;;;;4.68;72.11;99857.61;108511;1271;60145;-71
2022/04/04 10:26:20;;;;;;;11.60;6.30;;;;;;;4.72;71.56;99841.05;108241;1274;61912;-72
2022/04/04 10:28:48;;;;;;;7.90;4.90;;;;;;;4.77;71.51;99838.08;108431;1274;73736;-72
2022/04/04 10:31:18;;;;;;;5.90;5.00;;;;;;;4.80;71.53;99821.01;108473;1271;71477;-71
2022/04/04 10:33:46;;;;;;;9.10;6.90;;;;;;;4.81;71.77;99821.71;108494;1271;71723;-71
2022/04/04 10:36:20;;;;;;;9.00;6.40;;;;;;;4.82;72.24;99803.38;108296;1274;61358;-71
2022/04/04 10:38:57;;;;;;;11.70;5.90;;;;;;;4.80;72.34;99810.99;108467;1274;61607;-71
2022/04/04 10:41:50;;;;;;;10.40;6.20;;;;;;;4.75;72.66;99806.95;106754;1272;75942;-73
2022/04/04 10:44:20;;;;;;;13.70;7.20;;;;;;;4.78;73.68;99790.13;108351;1273;71456;-72
2022/04/04 10:46:50;;;;;;;9.90;6.60;;;;;;;4.76;72.41;99815.55;108465;1271;74144;-69
2022/04/04 10:49:40;;;;;;;11.40;7.10;;;;;;;4.73;73.24;99780.50;108498;1274;60447;-70
2022/04/04 10:52:09;;;;;;;6.80;5.20;;;;;;;4.67;74.13;99791.02;108431;1269;60446;-70
2022/04/04 10:54:38;;;;;;;9.10;5.20;;;;;;;4.63;74.88;99767.70;108342;1271;74544;-72
2022/04/04 10:57:16;;;;;;;10.20;7.60;;;;;;;4.59;75.39;99785.50;108292;1274;72481;-73
2022/04/04 11:00:09;;;;;;;14.60;8.50;;;;;;;4.53;75.40;99770.32;105543;1274;73834;-73
2022/04/04 11:02:37;;;;;;;15.60;10.90;;;;;;;4.49;76.12;99759.73;105640;1274;61695;-74
2022/04/04 11:08:08;;;;;;;9.40;5.20;;;;;;;4.34;76.96;99776.52;105446;1273;74330;-73
2022/04/04 11:10:47;;;;;;;13.00;7.90;;;;;;;4.26;77.09;99749.68;105291;1272;72241;-74
2022/04/04 11:13:19;;;;;;;10.10;7.30;;;;;;;4.21;78.24;99751.60;105492;1274;74114;-71
2022/04/04 11:16:02;;;;;;;10.00;6.40;;;;;;;4.18;79.44;99747.39;105571;1273;60960;-71
2022/04/04 11:19:04;;;;;;;;;;;;;;;;;;;;;
2022/04/04 11:21:42;;;;;;;8.70;6.30;;;;;;;3.93;80.67;99750.58;108399;1273;75156;-76
2022/04/04 11:24:14;;;;;;;10.50;6.60;;;;;;;3.82;82.26;99726.14;108394;1274;71830;-76
2022/04/04 11:26:42;;;;;;;8.60;6.50;;;;;;;3.77;83.62;99711.97;108351;1272;72711;-75
2022/04/04 11:29:19;;;;;;;10.40;6.20;;;;;;;3.75;83.82;99745.25;108458;1273;61435;-74
2022/04/04 11:31:50;;;;;;;13.70;8.90;;;;;;;3.74;84.52;99726.83;108490;1272;60603;-72
2022/04/04 11:34:27;;;;;;;10.50;7.80;;;;;;;3.70;85.67;99722.30;108461;1273;74145;-72
2022/04/04 11:37:17;;;;;;;16.20;10.00;;;;;;;3.64;86.30;99718.85;106052;1274;71366;-72